Pagina principale
METAR-TAF:

METAR-TAF

Aeroporti :

Aeroporto di Perugia

Perugia, Italia

latitudine: 43-05N, longitudine: 012-30E, altezza: 208 m

Osservazione

Il bollettino è stato emesso 34 minuti fa, alle 03:50 UTC
Vento 5 kt da nord
Temperature 3°C
Umidità 87%
Pressione 1023 hPa

METAR: LIRZ 270350Z AUTO 36005KT //// // NCD 03/01 Q1023

Ora: 05:24 (04:24 UTC)

Previsione

Il bollettino è stato emesso 5 ore e 24 minuti fa, alle 23:00 UTC
Previsione valida dal 27 alle 00 UTC al 27 alle 24 UTC
Vento 5 kt da direzioni variabili
Visibilità 10 km o più
nessuna nube inferiore a 1500 m e nessun cumulonembo

TAF: LIRZ 262300Z 2700/2724 VRB05KT CAVOK

Osservazioni e previsioni meteorologiche di più di 4000 aeroporti (messaggi METAR e TAF).

Le stazioni disponibili sono rappresentate dai dischi gialli e rossi sulla carta.

Puntare il mouse per vedere il nome della stazione.

Clicca sopra per visualizzare le osservazioni e previsioni meteorologiche.

Per cambiare la mappa : fare clic sui pulsanti verdi con una croce nera per ingrandire, il pulsante verde con un trattino per diminuire, o sulla freccia verde per le mappe adiacenti.


METAR-TAF: